createdAt,value
2022-12-19T00:00:27.955Z,101612.34
2022-12-19T00:01:33.938Z,101603.78
2022-12-19T00:02:39.271Z,101616.31
2022-12-19T00:03:47.125Z,101628.81
2022-12-19T00:04:49.339Z,101608.06
2022-12-19T00:05:54.408Z,101595.56
2022-12-19T00:07:05.525Z,101596.69
2022-12-19T00:08:17.615Z,101611.28
2022-12-19T00:09:20.231Z,101603.94
2022-12-19T00:10:22.519Z,101617.69
2022-12-19T00:11:25.638Z,101604.19
2022-12-19T00:12:31.157Z,101609.69
2022-12-19T00:13:40.752Z,101612.38
2022-12-19T00:14:47.556Z,101620.47
2022-12-19T00:15:49.835Z,101634.34
2022-12-19T00:16:53.506Z,101604.69
2022-12-19T00:17:56.784Z,101602.00
2022-12-19T00:19:00.780Z,101615.47
2022-12-19T00:20:04.097Z,101608.38
2022-12-19T00:21:07.102Z,101619.91
2022-12-19T00:22:11.307Z,101614.59
2022-12-19T00:23:13.682Z,101617.31
2022-12-19T00:24:21.236Z,101624.53
2022-12-19T00:25:24.007Z,101617.44
2022-12-19T00:26:36.792Z,101596.16
2022-12-19T00:27:39.817Z,101591.34
2022-12-19T00:28:44.388Z,101600.03
2022-12-19T00:29:46.659Z,101593.19
2022-12-19T00:30:48.985Z,101603.81
2022-12-19T00:31:51.316Z,101623.56
2022-12-19T00:32:56.130Z,101600.16
2022-12-19T00:33:58.365Z,101611.91
2022-12-19T00:35:01.168Z,101599.19
2022-12-19T00:36:07.261Z,101601.59
2022-12-19T00:37:09.471Z,101594.63
2022-12-19T00:38:11.870Z,101581.06
2022-12-19T00:39:14.327Z,101606.28
2022-12-19T00:40:16.762Z,101597.47
2022-12-19T00:41:25.266Z,101597.31
2022-12-19T00:42:36.687Z,101581.16
2022-12-19T00:43:39.462Z,101592.81
2022-12-19T00:44:41.768Z,101596.00
2022-12-19T00:45:44.064Z,101594.28
2022-12-19T00:46:52.366Z,101568.06
2022-12-19T00:47:57.422Z,101591.72
2022-12-19T00:49:00.569Z,101592.84
2022-12-19T00:50:05.946Z,101582.06
2022-12-19T00:51:20.258Z,101584.75
2022-12-19T00:52:22.515Z,101582.31
2022-12-19T00:53:25.765Z,101576.19
2022-12-19T00:54:28.004Z,101589.81
2022-12-19T00:55:30.753Z,101583.44
2022-12-19T00:56:37.710Z,101575.72
2022-12-19T00:57:42.882Z,101586.38
2022-12-19T00:58:47.499Z,101565.69
2022-12-19T00:59:50.789Z,101599.00
2022-12-19T01:00:53.823Z,101572.41
2022-12-19T01:01:56.286Z,101570.59
2022-12-19T01:02:59.902Z,101567.75
2022-12-19T01:05:28.237Z,101582.34
2022-12-19T01:06:30.807Z,101585.78
2022-12-19T01:07:34.091Z,101586.50
2022-12-19T01:08:36.989Z,101586.75
2022-12-19T01:09:39.995Z,101572.41
2022-12-19T01:10:49.649Z,101575.84
2022-12-19T01:12:13.905Z,101612.00
2022-12-19T01:13:19.783Z,101571.56
2022-12-19T01:14:23.166Z,101578.69
2022-12-19T01:15:26.037Z,101566.91
2022-12-19T01:16:28.323Z,101567.91
2022-12-19T01:17:30.595Z,101576.13
2022-12-19T01:18:33.021Z,101574.53
2022-12-19T01:19:40.366Z,101572.19
2022-12-19T01:20:49.246Z,101557.75
2022-12-19T01:21:51.470Z,101560.44
2022-12-19T01:22:54.342Z,101560.59
2022-12-19T01:23:56.756Z,101563.00
2022-12-19T01:24:59.010Z,101568.66
2022-12-19T01:26:01.480Z,101572.06
2022-12-19T01:27:03.797Z,101576.47
2022-12-19T01:28:07.603Z,101553.47
2022-12-19T01:29:09.926Z,101551.75
2022-12-19T01:30:13.047Z,101542.56
2022-12-19T01:31:16.036Z,101531.78
2022-12-19T01:32:21.920Z,101548.69
2022-12-19T01:33:24.272Z,101552.09
2022-12-19T01:34:26.785Z,101546.13
2022-12-19T01:35:29.183Z,101546.22
2022-12-19T01:36:31.375Z,101552.38
2022-12-19T01:37:33.660Z,101558.72
2022-12-19T01:38:36.588Z,101561.56
2022-12-19T01:39:38.774Z,101546.84
2022-12-19T01:40:58.076Z,101543.53
2022-12-19T01:42:01.214Z,101544.41
2022-12-19T01:43:04.782Z,101547.81
2022-12-19T01:44:11.996Z,101545.25
2022-12-19T01:45:17.303Z,101547.97
2022-12-19T01:46:43.089Z,101546.22
2022-12-19T01:48:23.659Z,101547.13
2022-12-19T01:49:31.188Z,101555.19
2022-12-19T01:50:47.069Z,101543.44
2022-12-19T01:52:10.363Z,101542.69
2022-12-19T01:53:29.577Z,101531.78
2022-12-19T01:54:38.717Z,101542.56
2022-12-19T01:55:42.667Z,101517.47
2022-12-19T01:56:49.740Z,101526.41
2022-12-19T01:57:57.656Z,101515.75
2022-12-19T01:59:07.079Z,101541.97
2022-12-19T02:00:12.768Z,101529.59
2022-12-19T02:01:18.092Z,101531.56
2022-12-19T02:02:33.702Z,101527.31
2022-12-19T02:03:37.306Z,101518.34
2022-12-19T02:04:41.203Z,101538.31
2022-12-19T02:05:46.813Z,101533.31
2022-12-19T02:06:51.123Z,101525.38
2022-12-19T02:07:53.982Z,101525.75
2022-12-19T02:08:56.573Z,101524.91
2022-12-19T02:09:59.320Z,101512.28
2022-12-19T02:11:09.736Z,101510.44
2022-12-19T02:12:14.856Z,101522.19
2022-12-19T02:13:17.903Z,101510.31
2022-12-19T02:14:20.638Z,101521.22
2022-12-19T02:15:23.970Z,101511.16
2022-12-19T02:16:53.900Z,101511.91
2022-12-19T02:18:02.107Z,101517.53
2022-12-19T02:19:26.707Z,101516.69
2022-12-19T02:20:44.786Z,101502.25
2022-12-19T02:21:49.890Z,101508.47
2022-12-19T02:23:02.711Z,101496.84
2022-12-19T02:24:18.376Z,101483.38
2022-12-19T02:25:55.783Z,101481.19
2022-12-19T02:27:25.680Z,101484.03
2022-12-19T02:28:40.338Z,101492.09
2022-12-19T02:30:04.842Z,101494.06
2022-12-19T02:31:17.467Z,101491.34
2022-12-19T02:32:31.508Z,101473.25
2022-12-19T02:33:56.381Z,101468.97
2022-12-19T02:35:00.239Z,101479.75
2022-12-19T02:36:11.793Z,101479.75
2022-12-19T02:37:20.927Z,101466.66
2022-12-19T02:38:48.296Z,101469.47
2022-12-19T02:39:59.036Z,101485.34
2022-12-19T02:41:08.080Z,101488.78
2022-12-19T02:42:15.303Z,101501.28
2022-12-19T02:43:22.743Z,101488.06
2022-12-19T02:44:49.065Z,101497.72
2022-12-19T02:45:52.923Z,101511.19
2022-12-19T02:46:57.229Z,101501.28
2022-12-19T02:48:08.648Z,101490.66
2022-12-19T02:49:17.837Z,101495.91
2022-12-19T02:50:36.299Z,101498.31
2022-12-19T02:51:38.808Z,101508.38
2022-12-19T02:52:44.978Z,101512.56
2022-12-19T02:53:49.856Z,101515.38
2022-12-19T02:54:56.283Z,101506.06
2022-12-19T02:56:27.321Z,101517.56
2022-12-19T02:57:39.910Z,101516.47
2022-12-19T02:58:46.215Z,101524.28
2022-12-19T03:00:13.019Z,101518.75
2022-12-19T03:02:20.321Z,101522.34
2022-12-19T03:03:45.102Z,101514.81
2022-12-19T03:04:59.726Z,101514.69
2022-12-19T03:06:39.590Z,101517.28
2022-12-19T03:07:42.285Z,101496.59
2022-12-19T03:08:48.656Z,101514.47
2022-12-19T03:10:17.269Z,101509.06
2022-12-19T03:11:23.401Z,101511.38
2022-12-19T03:12:32.336Z,101515.06
2022-12-19T03:14:03.800Z,101525.72
2022-12-19T03:15:07.518Z,101529.88
2022-12-19T03:16:11.329Z,101518.25
2022-12-19T03:17:13.690Z,101527.16
2022-12-19T03:18:16.026Z,101508.31
2022-12-19T03:19:18.389Z,101517.38
2022-12-19T03:20:32.445Z,101521.78
2022-12-19T03:21:40.456Z,101520.66
2022-12-19T03:22:42.967Z,101527.91
2022-12-19T03:23:47.332Z,101535.72
2022-12-19T03:24:49.691Z,101539.53
2022-12-19T03:25:59.068Z,101538.56
2022-12-19T03:27:12.874Z,101528.47
2022-12-19T03:28:41.507Z,101548.09
2022-12-19T03:29:56.012Z,101553.47
2022-12-19T03:31:00.994Z,101534.47
2022-12-19T03:32:05.738Z,101542.31
2022-12-19T03:33:11.639Z,101568.53
2022-12-19T03:34:41.951Z,101552.09
2022-12-19T03:35:46.969Z,101549.03
2022-12-19T03:36:57.281Z,101555.03
2022-12-19T03:38:03.131Z,101551.31
2022-12-19T03:39:08.578Z,101543.13
2022-12-19T03:40:15.894Z,101544.13
2022-12-19T03:41:40.900Z,101547.66
2022-12-19T03:43:05.188Z,101545.56
2022-12-19T03:44:11.593Z,101538.31
2022-12-19T03:45:21.118Z,101538.22
2022-12-19T03:46:29.269Z,101545.31
2022-12-19T03:47:38.285Z,101534.28
2022-12-19T03:48:47.537Z,101534.16
2022-12-19T03:49:50.731Z,101537.09
2022-12-19T03:51:31.739Z,101527.31
2022-12-19T03:52:35.691Z,101528.88
2022-12-19T03:53:43.797Z,101536.84
2022-12-19T03:54:55.003Z,101557.44
2022-12-19T03:56:22.818Z,101535.72
2022-12-19T03:57:55.596Z,101527.63
2022-12-19T03:59:12.957Z,101542.69
2022-12-19T04:00:17.680Z,101537.91
2022-12-19T04:01:21.771Z,101534.22
2022-12-19T04:02:25.201Z,101531.41
2022-12-19T04:03:29.633Z,101528.44
2022-12-19T04:04:37.152Z,101531.75
2022-12-19T04:05:42.079Z,101550.63
2022-12-19T04:06:45.802Z,101542.53
2022-12-19T04:07:52.439Z,101549.03
2022-12-19T04:08:55.709Z,101548.28
2022-12-19T04:10:00.470Z,101555.13
2022-12-19T04:11:07.557Z,101542.25
2022-12-19T04:12:15.550Z,101550.34
2022-12-19T04:13:23.893Z,101555.59
2022-12-19T04:14:35.748Z,101549.22
2022-12-19T04:15:45.031Z,101548.09
2022-12-19T04:16:52.486Z,101550.66
2022-12-19T04:17:58.018Z,101552.25
2022-12-19T04:19:10.518Z,101540.34
2022-12-19T04:20:20.981Z,101542.06
2022-12-19T04:21:39.229Z,101536.94
2022-12-19T04:22:50.985Z,101533.13
2022-12-19T04:24:02.264Z,101523.78
2022-12-19T04:25:24.014Z,101526.22
2022-12-19T04:26:33.332Z,101524.25
2022-12-19T04:27:38.892Z,101515.88
2022-12-19T04:29:01.190Z,101507.66
2022-12-19T04:30:08.613Z,101511.47
2022-12-19T04:31:15.797Z,101497.84
2022-12-19T04:32:19.386Z,101492.59
2022-12-19T04:33:21.636Z,101503.13
2022-12-19T04:34:24.038Z,101499.69
2022-12-19T04:35:26.469Z,101501.53
2022-12-19T04:36:29.137Z,101506.66
2022-12-19T04:37:31.915Z,101507.25
2022-12-19T04:38:34.889Z,101505.41
2022-12-19T04:39:37.222Z,101492.66
2022-12-19T04:40:41.649Z,101490.78
2022-12-19T04:41:44.130Z,101506.00
2022-12-19T04:42:46.477Z,101489.53
2022-12-19T04:43:48.969Z,101495.81
2022-12-19T04:44:51.845Z,101498.50
2022-12-19T04:45:57.898Z,101496.03
2022-12-19T04:47:00.301Z,101497.91
2022-12-19T04:48:02.799Z,101504.75
2022-12-19T04:49:05.121Z,101497.38
2022-12-19T04:50:07.583Z,101496.50
2022-12-19T04:51:09.844Z,101494.53
2022-12-19T04:52:12.142Z,101490.72
2022-12-19T04:53:14.523Z,101505.94
2022-12-19T04:54:16.896Z,101496.13
2022-12-19T04:55:19.267Z,101498.66
2022-12-19T04:56:21.634Z,101500.38
2022-12-19T04:57:23.983Z,101505.66
2022-12-19T04:58:27.868Z,101511.19
2022-12-19T04:59:30.236Z,101507.34
2022-12-19T05:00:33.582Z,101495.84
2022-12-19T05:01:35.927Z,101509.06
2022-12-19T05:02:38.943Z,101509.06
2022-12-19T05:03:41.726Z,101506.94
2022-12-19T05:04:44.105Z,101506.84
2022-12-19T05:05:46.445Z,101509.25
2022-12-19T05:06:49.000Z,101535.13
2022-12-19T05:07:51.798Z,101508.97
2022-12-19T05:08:54.254Z,101510.81
2022-12-19T05:09:56.631Z,101515.25
2022-12-19T05:11:05.426Z,101517.66
2022-12-19T05:12:07.795Z,101514.94
2022-12-19T05:13:10.127Z,101521.94
2022-12-19T05:14:12.702Z,101523.63
2022-12-19T05:15:14.979Z,101521.78
2022-12-19T05:16:17.649Z,101521.09
2022-12-19T05:17:20.001Z,101518.25
2022-12-19T05:18:22.218Z,101520.94
2022-12-19T05:19:24.681Z,101516.53
2022-12-19T05:20:26.924Z,101512.84
2022-12-19T05:21:29.148Z,101527.03
2022-12-19T05:22:31.397Z,101518.94
2022-12-19T05:23:36.067Z,101520.53
2022-12-19T05:24:38.323Z,101509.72
2022-12-19T05:25:40.661Z,101508.88
2022-12-19T05:26:42.930Z,101499.78
2022-12-19T05:27:45.252Z,101496.94
2022-12-19T05:28:47.777Z,101505.06
2022-12-19T05:29:50.048Z,101504.91
2022-12-19T05:30:52.756Z,101504.91
2022-12-19T05:31:55.286Z,101508.59
2022-12-19T05:32:57.533Z,101516.84
2022-12-19T05:34:00.024Z,101507.91
2022-12-19T05:35:02.737Z,101516.97
2022-12-19T05:36:05.711Z,101511.44
2022-12-19T05:37:08.790Z,101515.84
2022-12-19T05:38:11.016Z,101506.91
2022-12-19T05:39:13.279Z,101507.91
2022-12-19T05:40:15.551Z,101513.16
2022-12-19T05:41:19.845Z,101514.72
2022-12-19T05:42:22.173Z,101518.28
2022-12-19T05:43:24.479Z,101519.28
2022-12-19T05:44:26.892Z,101519.41
2022-12-19T05:45:29.395Z,101516.00
2022-12-19T05:46:31.658Z,101519.81
2022-12-19T05:47:34.131Z,101523.34
2022-12-19T05:48:36.864Z,101519.53
2022-12-19T05:49:39.101Z,101526.78
2022-12-19T05:50:41.655Z,101521.41
2022-12-19T05:51:44.832Z,101514.00
2022-12-19T05:52:47.459Z,101520.28
2022-12-19T05:53:50.049Z,101514.88
2022-12-19T05:54:52.372Z,101523.94
2022-12-19T05:56:10.102Z,101521.41
2022-12-19T05:57:14.463Z,101509.63
2022-12-19T05:58:16.828Z,101505.91
2022-12-19T05:59:19.029Z,101504.91
2022-12-19T06:00:22.586Z,101507.63
2022-12-19T06:01:27.226Z,101499.50
2022-12-19T06:02:33.730Z,101505.06
2022-12-19T06:03:36.653Z,101513.00
2022-12-19T06:04:39.004Z,101500.50
2022-12-19T06:05:41.416Z,101502.22
2022-12-19T06:06:44.502Z,101506.47
2022-12-19T06:07:46.783Z,101499.25
2022-12-19T06:08:53.585Z,101505.34
2022-12-19T06:09:55.947Z,101487.03
2022-12-19T06:11:02.892Z,101493.56
2022-12-19T06:12:06.334Z,101500.09
2022-12-19T06:13:09.338Z,101492.16
2022-12-19T06:14:11.630Z,101500.25
2022-12-19T06:15:13.903Z,101499.25
2022-12-19T06:16:19.132Z,101510.31
2022-12-19T06:17:21.533Z,101489.44
2022-12-19T06:18:23.966Z,101500.09
2022-12-19T06:19:26.532Z,101495.69
2022-12-19T06:20:28.835Z,101502.94
2022-12-19T06:21:31.143Z,101512.63
2022-12-19T06:22:35.077Z,101504.50
2022-12-19T06:23:37.726Z,101508.94
2022-12-19T06:24:40.099Z,101508.66
2022-12-19T06:25:42.383Z,101519.31
2022-12-19T06:26:45.291Z,101514.63
2022-12-19T06:27:47.569Z,101499.56
2022-12-19T06:28:51.956Z,101517.34
2022-12-19T06:29:54.576Z,101509.94
2022-12-19T06:31:03.451Z,101508.09
2022-12-19T06:32:06.000Z,101517.78
2022-12-19T06:33:13.769Z,101545.47
2022-12-19T06:34:39.403Z,101501.28
2022-12-19T06:35:39.188Z,101496.03
2022-12-19T06:36:41.513Z,101527.31
2022-12-19T06:37:43.746Z,101501.28
2022-12-19T06:38:46.627Z,101514.66
2022-12-19T06:39:50.986Z,101509.25
2022-12-19T06:41:11.862Z,101497.59
2022-12-19T06:42:23.658Z,101487.50
2022-12-19T06:43:26.433Z,101501.00
2022-12-19T06:44:28.650Z,101508.84
2022-12-19T06:45:31.445Z,101500.59
2022-12-19T06:46:34.390Z,101502.47
2022-12-19T06:47:36.613Z,101507.88
2022-12-19T06:48:38.824Z,101495.06
2022-12-19T06:49:41.023Z,101499.47
2022-12-19T06:50:43.250Z,101511.00
2022-12-19T06:51:46.440Z,101499.06
2022-12-19T06:52:48.873Z,101504.59
2022-12-19T06:53:51.719Z,101497.22
2022-12-19T06:54:54.067Z,101486.25
2022-12-19T06:55:58.950Z,101495.19
2022-12-19T06:57:01.461Z,101509.28
2022-12-19T06:58:04.501Z,101490.38
2022-12-19T06:59:07.788Z,101497.78
2022-12-19T07:00:11.079Z,101490.53
2022-12-19T07:01:43.976Z,101479.56
2022-12-19T07:02:50.709Z,101491.25
2022-12-19T07:03:57.259Z,101502.63
2022-12-19T07:05:07.523Z,101511.84
2022-12-19T07:06:09.913Z,101489.41
2022-12-19T07:07:12.341Z,101498.22
2022-12-19T07:08:14.823Z,101500.34
2022-12-19T07:09:18.168Z,101508.31
2022-12-19T07:10:20.551Z,101506.19
2022-12-19T07:11:22.928Z,101496.06
2022-12-19T07:12:26.613Z,101505.91
2022-12-19T07:13:31.499Z,101506.88
2022-12-19T07:14:33.954Z,101483.59
2022-12-19T07:15:41.092Z,101496.81
2022-12-19T07:16:45.725Z,101477.91
2022-12-19T07:17:48.310Z,101494.25
2022-12-19T07:18:50.624Z,101498.66
2022-12-19T07:19:58.077Z,101508.34
2022-12-19T07:21:01.741Z,101499.38
2022-12-19T07:22:05.308Z,101504.91
2022-12-19T07:23:09.370Z,101495.97
2022-12-19T07:24:12.555Z,101500.34
2022-12-19T07:25:14.919Z,101501.91
2022-12-19T07:26:17.633Z,101504.63
2022-12-19T07:27:23.330Z,101500.09
2022-12-19T07:28:25.710Z,101492.97
2022-12-19T07:29:28.287Z,101501.22
2022-12-19T07:30:30.662Z,101489.13
2022-12-19T07:31:33.109Z,101499.66
2022-12-19T07:32:35.652Z,101492.56
2022-12-19T07:33:37.838Z,101495.13
2022-12-19T07:34:40.147Z,101478.91
2022-12-19T07:35:42.428Z,101484.16
2022-12-19T07:36:44.642Z,101480.59
2022-12-19T07:37:47.553Z,101482.59
2022-12-19T07:38:53.822Z,101474.34
2022-12-19T07:39:56.070Z,101465.41
2022-12-19T07:41:01.512Z,101478.75
2022-12-19T07:42:03.947Z,101477.78
2022-12-19T07:43:11.181Z,101491.00
2022-12-19T07:44:16.466Z,101496.53
2022-12-19T07:45:18.796Z,101486.56
2022-12-19T07:46:22.136Z,101482.03
2022-12-19T07:47:27.629Z,101488.28
2022-12-19T07:48:31.504Z,101491.72
2022-12-19T07:49:33.719Z,101501.81
2022-12-19T07:50:36.029Z,101485.44
2022-12-19T07:51:38.264Z,101503.38
2022-12-19T07:52:40.621Z,101494.69
2022-12-19T07:53:42.856Z,101490.00
2022-12-19T07:54:45.113Z,101494.13
2022-12-19T07:55:51.074Z,101485.19
2022-12-19T07:56:53.368Z,101481.44
2022-12-19T07:57:55.866Z,101493.00
2022-12-19T07:58:58.153Z,101499.38
2022-12-19T08:00:00.450Z,101490.44
2022-12-19T08:01:03.305Z,101486.75
2022-12-19T08:02:06.527Z,101491.00
2022-12-19T08:03:10.365Z,101493.56
2022-12-19T08:04:13.797Z,101492.44
2022-12-19T08:05:16.192Z,101483.34
2022-12-19T08:06:19.845Z,101479.50
2022-12-19T08:07:22.087Z,101488.59
2022-12-19T08:08:24.957Z,101536.53
2022-12-19T08:09:28.334Z,101500.53
2022-12-19T08:10:32.197Z,101501.38
2022-12-19T08:11:34.614Z,101499.41
2022-12-19T08:12:36.888Z,101497.41
2022-12-19T08:13:44.792Z,101506.09
2022-12-19T08:14:51.596Z,101516.75
2022-12-19T08:16:00.782Z,101498.81
2022-12-19T08:18:26.139Z,101507.34
2022-12-19T08:19:28.364Z,101500.81
2022-12-19T08:20:30.593Z,101495.13
2022-12-19T08:21:32.833Z,101488.00
2022-12-19T08:22:35.382Z,101498.81
2022-12-19T08:23:39.426Z,101484.31
2022-12-19T08:24:41.670Z,101463.38
2022-12-19T08:25:43.963Z,101479.47
2022-12-19T08:26:47.842Z,101461.41
2022-12-19T08:27:50.199Z,101466.50
2022-12-19T08:28:57.245Z,101458.97
2022-12-19T08:29:59.428Z,101458.13
2022-12-19T08:31:10.274Z,101463.38
2022-12-19T08:32:18.635Z,101458.81
2022-12-19T08:33:23.057Z,101459.53
2022-12-19T08:34:25.278Z,101457.81
2022-12-19T08:35:27.654Z,101475.47
2022-12-19T08:36:29.892Z,101463.66
2022-12-19T08:37:32.116Z,101456.09
2022-12-19T08:38:35.040Z,101451.53
2022-12-19T08:39:37.377Z,101448.69
2022-12-19T08:40:42.873Z,101448.69
2022-12-19T08:41:49.369Z,101448.56
2022-12-19T08:42:51.586Z,101442.13
2022-12-19T08:43:54.803Z,101447.53
2022-12-19T08:44:57.069Z,101444.00
2022-12-19T08:45:59.809Z,101432.88
2022-12-19T08:47:03.183Z,101455.22
2022-12-19T08:48:05.854Z,101433.44
2022-12-19T08:49:08.072Z,101430.47
2022-12-19T08:50:11.235Z,101426.47
2022-12-19T08:51:14.583Z,101424.59
2022-12-19T08:52:17.727Z,101422.47
2022-12-19T08:53:26.265Z,101420.47
2022-12-19T08:54:28.990Z,101414.75
2022-12-19T08:55:31.233Z,101423.59
2022-12-19T08:56:33.480Z,101426.88
2022-12-19T08:57:36.125Z,101425.84
2022-12-19T08:58:38.422Z,101429.25
2022-12-19T08:59:40.711Z,101435.38
2022-12-19T09:00:46.535Z,101434.53
2022-12-19T09:01:56.458Z,101436.91
2022-12-19T09:02:59.021Z,101434.38
2022-12-19T09:05:08.495Z,101425.09
2022-12-19T09:06:05.215Z,101425.97
2022-12-19T09:06:45.968Z,101431.06
2022-12-19T09:07:48.226Z,101429.38
2022-12-19T09:08:50.468Z,101425.34
2022-12-19T09:09:52.759Z,101420.97
2022-12-19T09:10:59.926Z,101410.66
2022-12-19T09:12:02.201Z,101424.09
2022-12-19T09:13:13.809Z,101420.34
2022-12-19T09:14:21.429Z,101416.38
2022-12-19T09:15:24.401Z,101421.78
2022-12-19T09:16:29.542Z,101408.94
2022-12-19T09:17:31.846Z,101421.31
2022-12-19T09:18:35.016Z,101404.06
2022-12-19T09:19:37.340Z,101423.44
2022-12-19T09:20:40.376Z,101419.72
2022-12-19T09:21:42.995Z,101443.06
2022-12-19T09:22:45.309Z,101415.16
2022-12-19T09:23:49.793Z,101410.13
2022-12-19T09:24:54.272Z,101401.19
2022-12-19T09:26:08.007Z,101408.84
2022-12-19T09:27:10.203Z,101403.25
2022-12-19T09:28:28.338Z,101413.97
2022-12-19T09:29:35.096Z,101403.97
2022-12-19T09:30:37.894Z,101388.44
2022-12-19T09:31:40.397Z,101394.69
2022-12-19T09:32:42.645Z,101396.25
2022-12-19T09:33:45.076Z,101419.75
2022-12-19T09:34:47.357Z,101398.78
2022-12-19T09:35:51.359Z,101423.16
2022-12-19T09:36:56.819Z,101395.53
2022-12-19T09:38:00.555Z,101394.38
2022-12-19T09:39:03.085Z,101390.81
2022-12-19T09:40:05.933Z,101398.78
2022-12-19T09:41:14.908Z,101399.78
2022-12-19T09:42:30.638Z,101399.19
2022-12-19T09:43:44.991Z,101393.63
2022-12-19T09:45:15.442Z,101399.75
2022-12-19T09:46:52.606Z,101412.13
2022-12-19T09:47:59.151Z,101378.38
2022-12-19T09:49:02.089Z,101394.00
2022-12-19T09:50:18.548Z,101388.59
2022-12-19T09:51:30.892Z,101390.47
2022-12-19T09:52:37.591Z,101394.88
2022-12-19T09:54:15.362Z,101388.44
2022-12-19T09:55:28.482Z,101378.47
2022-12-19T09:56:46.310Z,101391.69
2022-12-19T09:57:59.437Z,101381.88
2022-12-19T09:59:12.835Z,101377.84
2022-12-19T10:00:19.584Z,101381.41
2022-12-19T10:01:33.024Z,101374.13
2022-12-19T10:02:49.559Z,101384.69
2022-12-19T10:04:01.464Z,101386.66
2022-12-19T10:05:25.171Z,101370.41
2022-12-19T10:07:12.990Z,101388.22
2022-12-19T10:08:10.411Z,101376.38
2022-12-19T10:10:04.297Z,101380.25
2022-12-19T10:12:38.105Z,101370.97
2022-12-19T10:12:51.118Z,101377.94
2022-12-19T10:14:22.357Z,101380.31
2022-12-19T10:15:45.199Z,101375.78
2022-12-19T10:17:25.365Z,101362.75
2022-12-19T10:18:51.013Z,101364.63
2022-12-19T10:19:58.066Z,101357.31
2022-12-19T10:21:37.166Z,101361.91
2022-12-19T10:23:42.989Z,101357.72
2022-12-19T10:25:10.231Z,101358.25
2022-12-19T10:26:50.164Z,101362.84
2022-12-19T10:28:07.414Z,101356.25
2022-12-19T10:29:35.945Z,101363.22
2022-12-19T10:30:48.159Z,101358.19
2022-12-19T10:32:29.060Z,101363.28
2022-12-19T10:34:00.439Z,101360.41
2022-12-19T10:35:15.054Z,101353.66
2022-12-19T10:36:17.559Z,101348.94
2022-12-19T10:37:35.138Z,101354.03
2022-12-19T10:39:03.861Z,101361.88
2022-12-19T10:40:27.367Z,101347.84
2022-12-19T10:41:32.701Z,101345.34
2022-12-19T10:42:55.511Z,101349.47
2022-12-19T10:44:07.515Z,101355.00
2022-12-19T10:45:15.142Z,101337.28
2022-12-19T10:46:23.859Z,101353.06
2022-12-19T10:47:26.142Z,101342.03
2022-12-19T10:48:31.012Z,101331.72
2022-12-19T10:49:34.132Z,101329.72
2022-12-19T10:50:36.513Z,101339.41
2022-12-19T10:51:39.274Z,101333.09
2022-12-19T10:52:52.652Z,101340.59
2022-12-19T10:54:01.515Z,101333.19
2022-12-19T10:55:30.082Z,101336.38
2022-12-19T10:56:37.487Z,101336.38
2022-12-19T10:57:40.432Z,101332.69
2022-12-19T10:58:45.631Z,101329.78
2022-12-19T11:00:01.927Z,101339.34
2022-12-19T11:01:09.941Z,101324.72
2022-12-19T11:02:33.182Z,101323.56
2022-12-19T11:03:36.165Z,101334.28
2022-12-19T11:04:39.404Z,101335.66
2022-12-19T11:05:50.717Z,101331.94
2022-12-19T11:07:03.348Z,101320.75
2022-12-19T11:08:08.309Z,101329.72
2022-12-19T11:09:37.917Z,101340.09
2022-12-19T11:12:13.021Z,101321.09
2022-12-19T11:13:22.230Z,101334.66
2022-12-19T11:17:49.215Z,101313.47
2022-12-19T11:19:08.208Z,101319.41
2022-12-19T11:23:25.277Z,101314.84
2022-12-19T11:25:57.778Z,101321.81
2022-12-19T11:29:17.974Z,101311.50
2022-12-19T11:29:33.018Z,101306.72
2022-12-19T11:29:35.301Z,101304.00
2022-12-19T11:30:35.708Z,101308.25
2022-12-19T11:30:40.811Z,101294.84
2022-12-19T11:30:47.443Z,101293.50
2022-12-19T11:30:48.668Z,101291.97
2022-12-19T11:32:39.078Z,101281.81
2022-12-19T11:33:21.595Z,101278.56
2022-12-19T11:34:27.328Z,101277.69
2022-12-19T11:35:36.538Z,101283.31
2022-12-19T11:37:03.116Z,101274.16
2022-12-19T11:38:08.526Z,101273.97
2022-12-19T11:39:24.863Z,101285.19
2022-12-19T11:40:49.328Z,101265.00
2022-12-19T11:42:02.070Z,101272.97
2022-12-19T11:45:03.065Z,101267.38
2022-12-19T11:46:32.883Z,101277.22
2022-12-19T11:47:47.853Z,101285.53
2022-12-19T11:48:55.452Z,101261.09
2022-12-19T11:50:13.547Z,101271.97
2022-12-19T11:51:30.496Z,101266.00
2022-12-19T11:53:18.350Z,101268.72
2022-12-19T11:54:46.921Z,101272.44
2022-12-19T11:55:56.223Z,101256.50
2022-12-19T11:56:59.364Z,101258.38
2022-12-19T11:58:01.584Z,101257.69
2022-12-19T11:59:13.620Z,101252.25
2022-12-19T12:00:24.593Z,101259.03
2022-12-19T12:01:54.712Z,101260.72
2022-12-19T12:03:12.746Z,101252.25
2022-12-19T12:04:46.688Z,101240.56
2022-12-19T12:05:51.662Z,101232.41
2022-12-19T12:06:57.791Z,101235.78
2022-12-19T12:09:19.550Z,101250.06
2022-12-19T12:13:45.653Z,101237.31
2022-12-19T12:18:53.037Z,101269.22
2022-12-19T12:19:11.996Z,101248.69
2022-12-19T12:25:59.634Z,101235.78
2022-12-19T12:31:08.553Z,101232.91
2022-12-19T12:31:22.987Z,101232.91
2022-12-19T12:31:26.377Z,101234.78
2022-12-19T12:31:26.997Z,101244.78
2022-12-19T12:31:43.764Z,101253.59
2022-12-19T12:31:44.603Z,101252.78
2022-12-19T12:31:57.248Z,101239.03
2022-12-19T12:32:02.051Z,101233.78
2022-12-19T12:35:22.308Z,101230.53
2022-12-19T12:35:35.105Z,101229.53
2022-12-19T12:36:00.032Z,101232.25
2022-12-19T12:37:58.847Z,101222.72
2022-12-19T12:39:16.165Z,101218.31
2022-12-19T12:40:52.894Z,101217.78
2022-12-19T12:42:09.509Z,101223.09
2022-12-19T12:43:14.536Z,101215.94
2022-12-19T12:44:17.496Z,101206.09
2022-12-19T12:45:36.247Z,101221.84
2022-12-19T12:46:44.861Z,101210.69
2022-12-19T12:47:53.264Z,101218.13
2022-12-19T12:49:06.010Z,101204.72
2022-12-19T12:50:14.840Z,101208.81
2022-12-19T12:51:18.659Z,101218.84
2022-12-19T12:52:29.972Z,101207.81
2022-12-19T12:53:37.224Z,101214.06
2022-12-19T12:54:42.916Z,101197.78
2022-12-19T12:55:46.412Z,101208.31
2022-12-19T12:56:48.836Z,101194.75
2022-12-19T12:57:52.406Z,101202.91
2022-12-19T12:58:55.489Z,101202.03
2022-12-19T13:00:30.016Z,101192.88
2022-12-19T13:01:36.846Z,101192.88
2022-12-19T13:02:40.129Z,101191.16
2022-12-19T13:03:43.619Z,101195.59
2022-12-19T13:04:59.264Z,101201.00
2022-12-19T13:06:07.481Z,101197.28
2022-12-19T13:07:20.732Z,101200.31
2022-12-19T13:08:42.720Z,101196.78
2022-12-19T13:09:50.754Z,101189.47
2022-12-19T13:10:58.340Z,101206.63
2022-12-19T13:12:22.909Z,101195.75
2022-12-19T13:13:50.696Z,101197.94
2022-12-19T13:14:52.989Z,101177.06
2022-12-19T13:15:55.289Z,101198.47
2022-12-19T13:16:57.573Z,101190.50
2022-12-19T13:18:31.327Z,101190.66
2022-12-19T13:19:36.454Z,101183.53